createdAt,value
2022-10-19T00:01:02.058Z,7.20
2022-10-19T00:03:30.072Z,7.06
2022-10-19T00:06:00.913Z,6.97
2022-10-19T00:08:28.790Z,7.04
2022-10-19T00:10:57.968Z,7.02
2022-10-19T00:13:25.786Z,6.99
2022-10-19T00:15:53.732Z,6.97
2022-10-19T00:18:21.501Z,6.93
2022-10-19T00:20:49.368Z,6.93
2022-10-19T00:23:20.919Z,6.86
2022-10-19T00:25:55.524Z,6.77
2022-10-19T00:28:24.857Z,6.88
2022-10-19T00:30:52.974Z,6.84
2022-10-19T00:33:22.510Z,6.83
2022-10-19T00:35:51.085Z,6.75
2022-10-19T00:38:19.212Z,6.67
2022-10-19T00:40:48.678Z,6.64
2022-10-19T00:43:17.840Z,6.72
2022-10-19T00:45:47.061Z,6.70
2022-10-19T00:48:18.147Z,6.59
2022-10-19T00:50:46.898Z,6.57
2022-10-19T00:53:15.481Z,6.51
2022-10-19T00:55:44.016Z,6.52
2022-10-19T00:58:12.119Z,6.55
2022-10-19T01:00:40.162Z,6.58
2022-10-19T01:03:11.174Z,6.58
2022-10-19T01:05:39.328Z,6.51
2022-10-19T01:08:08.657Z,6.55
2022-10-19T01:10:43.830Z,6.70
2022-10-19T01:13:25.785Z,6.78
2022-10-19T01:15:57.308Z,6.71
2022-10-19T01:18:33.777Z,6.64
2022-10-19T01:21:14.249Z,6.48
2022-10-19T01:24:02.929Z,6.40
2022-10-19T01:26:42.705Z,6.36
2022-10-19T01:29:15.575Z,6.28
2022-10-19T01:31:47.909Z,6.34
2022-10-19T01:34:20.638Z,6.32
2022-10-19T01:36:51.893Z,6.35
2022-10-19T01:39:24.200Z,6.35
2022-10-19T01:41:58.937Z,6.26
2022-10-19T01:44:28.733Z,6.30
2022-10-19T01:46:59.884Z,6.18
2022-10-19T01:49:30.509Z,6.20
2022-10-19T01:52:00.213Z,6.19
2022-10-19T01:54:30.606Z,6.22
2022-10-19T01:57:00.117Z,6.24
2022-10-19T01:59:28.580Z,6.22
2022-10-19T02:01:58.970Z,6.23
2022-10-19T02:04:26.981Z,6.22
2022-10-19T02:06:55.729Z,6.18
2022-10-19T02:09:23.702Z,6.11
2022-10-19T02:11:56.140Z,6.06
2022-10-19T02:14:28.770Z,6.03
2022-10-19T02:17:00.301Z,5.97
2022-10-19T02:19:28.113Z,5.97
2022-10-19T02:21:57.462Z,5.97
2022-10-19T02:24:25.322Z,5.94
2022-10-19T02:26:53.738Z,5.91
2022-10-19T02:29:21.748Z,5.87
2022-10-19T02:31:50.125Z,5.97
2022-10-19T02:34:19.300Z,5.98
2022-10-19T02:36:47.291Z,5.93
2022-10-19T02:39:15.160Z,6.05
2022-10-19T02:41:46.127Z,6.11
2022-10-19T02:44:16.510Z,6.18
2022-10-19T02:46:45.964Z,6.16
2022-10-19T02:49:14.473Z,6.07
2022-10-19T02:51:57.134Z,5.98
2022-10-19T02:54:26.913Z,6.04
2022-10-19T02:56:54.882Z,6.00
2022-10-19T02:59:22.804Z,6.14
2022-10-19T03:01:50.634Z,6.25
2022-10-19T03:04:18.616Z,6.19
2022-10-19T03:06:47.977Z,6.24
2022-10-19T03:09:16.007Z,6.29
2022-10-19T03:11:43.786Z,6.33
2022-10-19T03:14:11.739Z,6.28
2022-10-19T03:16:39.481Z,6.28
2022-10-19T03:19:07.612Z,6.29
2022-10-19T03:21:35.503Z,6.25
2022-10-19T03:24:04.986Z,6.25
2022-10-19T03:26:32.869Z,6.21
2022-10-19T03:29:01.649Z,6.45
2022-10-19T03:31:29.556Z,6.45
2022-10-19T03:33:57.700Z,6.48
2022-10-19T03:36:26.738Z,6.47
2022-10-19T03:38:55.162Z,6.50
2022-10-19T03:41:25.909Z,6.59
2022-10-19T03:43:53.784Z,6.69
2022-10-19T03:46:22.340Z,6.64
2022-10-19T03:48:50.500Z,6.51
2022-10-19T03:51:19.938Z,6.59
2022-10-19T03:53:48.258Z,6.61
2022-10-19T03:56:17.268Z,6.81
2022-10-19T03:58:47.290Z,6.78
2022-10-19T04:01:16.638Z,6.77
2022-10-19T04:03:44.926Z,6.82
2022-10-19T04:06:17.003Z,6.68
2022-10-19T04:08:49.347Z,6.69
2022-10-19T04:11:17.941Z,6.75
2022-10-19T04:13:48.713Z,6.84
2022-10-19T04:16:16.507Z,6.92
2022-10-19T04:18:44.336Z,6.88
2022-10-19T04:21:20.835Z,6.90
2022-10-19T04:23:48.773Z,6.99
2022-10-19T04:26:17.032Z,6.99
2022-10-19T04:28:44.937Z,6.92
2022-10-19T04:31:14.333Z,6.85
2022-10-19T04:33:42.366Z,6.83
2022-10-19T04:36:11.405Z,6.79
2022-10-19T04:38:39.735Z,6.74
2022-10-19T04:41:08.913Z,6.77
2022-10-19T04:43:37.090Z,6.78
2022-10-19T04:46:05.447Z,6.74
2022-10-19T04:48:35.549Z,6.80
2022-10-19T04:51:03.828Z,6.76
2022-10-19T04:53:31.627Z,6.84
2022-10-19T04:55:59.886Z,6.83
2022-10-19T04:58:28.431Z,6.83
2022-10-19T05:00:56.261Z,6.84
2022-10-19T05:03:25.088Z,6.76
2022-10-19T05:05:54.554Z,6.84
2022-10-19T05:08:23.607Z,6.72
2022-10-19T05:10:51.425Z,6.59
2022-10-19T05:13:19.251Z,6.50
2022-10-19T05:15:56.553Z,6.38
2022-10-19T05:18:24.557Z,6.43
2022-10-19T05:21:01.144Z,6.41
2022-10-19T05:26:03.251Z,6.24
2022-10-19T05:28:32.061Z,6.00
2022-10-19T05:31:06.374Z,5.84
2022-10-19T05:33:34.380Z,5.74
2022-10-19T05:36:12.168Z,5.81
2022-10-19T05:38:42.104Z,5.98
2022-10-19T05:41:12.495Z,5.95
2022-10-19T05:43:40.640Z,6.00
2022-10-19T05:46:09.815Z,6.09
2022-10-19T05:48:39.712Z,6.07
2022-10-19T05:51:09.232Z,6.13
2022-10-19T05:53:40.807Z,6.01
2022-10-19T05:56:10.428Z,5.94
2022-10-19T05:58:40.356Z,5.85
2022-10-19T06:01:09.747Z,5.90
2022-10-19T06:03:38.333Z,5.92
2022-10-19T06:06:07.305Z,5.97
2022-10-19T06:08:35.873Z,6.04
2022-10-19T06:11:08.262Z,6.07
2022-10-19T06:13:37.264Z,6.08
2022-10-19T06:16:05.336Z,6.02
2022-10-19T06:18:33.180Z,6.15
2022-10-19T06:21:02.872Z,6.12
2022-10-19T06:23:31.061Z,6.10
2022-10-19T06:25:59.091Z,6.24
2022-10-19T06:28:28.381Z,6.28
2022-10-19T06:30:58.242Z,6.34
2022-10-19T06:33:26.324Z,6.37
2022-10-19T06:35:54.287Z,6.27
2022-10-19T06:38:22.185Z,6.39
2022-10-19T06:40:50.007Z,6.38
2022-10-19T06:43:17.997Z,6.48
2022-10-19T06:45:47.199Z,6.56
2022-10-19T06:48:15.132Z,6.61
2022-10-19T06:50:44.121Z,6.59
2022-10-19T06:53:12.262Z,6.86
2022-10-19T06:55:40.266Z,7.04
2022-10-19T06:58:08.177Z,6.97
2022-10-19T07:00:36.085Z,7.06
2022-10-19T07:03:05.254Z,7.14
2022-10-19T07:05:33.172Z,7.43
2022-10-19T07:08:05.606Z,7.51
2022-10-19T07:10:33.589Z,7.52
2022-10-19T07:13:01.586Z,7.56
2022-10-19T07:15:29.450Z,7.76
2022-10-19T07:17:57.301Z,7.97
2022-10-19T07:20:26.629Z,8.20
2022-10-19T07:22:54.480Z,8.37
2022-10-19T07:25:22.682Z,8.41
2022-10-19T07:27:50.509Z,8.76
2022-10-19T07:30:18.630Z,9.25
2022-10-19T07:32:47.172Z,9.78
2022-10-19T07:35:15.372Z,9.97
2022-10-19T07:37:44.736Z,10.38
2022-10-19T07:40:13.439Z,10.73
2022-10-19T07:42:41.561Z,11.18
2022-10-19T07:45:09.660Z,11.34
2022-10-19T07:47:37.474Z,11.32
2022-10-19T07:50:05.702Z,11.45
2022-10-19T07:52:36.766Z,11.24
2022-10-19T07:55:07.161Z,11.64
2022-10-19T07:57:35.042Z,12.14
2022-10-19T08:00:02.976Z,12.15
2022-10-19T08:02:39.564Z,13.08
2022-10-19T08:05:19.003Z,14.08
2022-10-19T08:07:47.131Z,15.11
2022-10-19T08:10:16.328Z,17.16
2022-10-19T08:12:54.562Z,18.62
2022-10-19T08:15:22.761Z,19.36
2022-10-19T08:17:50.650Z,18.79
2022-10-19T08:20:18.563Z,17.81
2022-10-19T08:22:46.898Z,17.71
2022-10-19T08:25:16.351Z,17.33
2022-10-19T08:27:44.201Z,17.91
2022-10-19T08:30:12.556Z,17.70
2022-10-19T08:32:40.485Z,18.46
2022-10-19T08:35:10.909Z,19.53
2022-10-19T08:37:44.861Z,19.33
2022-10-19T08:40:19.302Z,19.50
2022-10-19T08:42:51.510Z,19.17
2022-10-19T08:45:24.536Z,18.88
2022-10-19T08:47:59.089Z,18.28
2022-10-19T08:50:28.074Z,17.86
2022-10-19T08:52:59.820Z,18.41
2022-10-19T08:55:35.222Z,19.43
2022-10-19T08:58:08.610Z,21.42
2022-10-19T09:00:42.312Z,23.57
2022-10-19T09:03:23.082Z,24.40
2022-10-19T09:06:12.750Z,24.09
2022-10-19T09:08:40.876Z,25.02
2022-10-19T09:11:12.349Z,24.98
2022-10-19T09:14:00.519Z,23.97
2022-10-19T09:16:30.348Z,24.48
2022-10-19T09:18:58.745Z,25.65
2022-10-19T09:21:36.824Z,27.13
2022-10-19T09:24:17.089Z,27.26
2022-10-19T09:26:50.563Z,27.78
2022-10-19T09:29:25.937Z,28.00
2022-10-19T09:31:56.255Z,27.87
2022-10-19T09:34:26.431Z,25.22
2022-10-19T09:36:56.093Z,26.70
2022-10-19T09:39:27.085Z,25.71
2022-10-19T09:42:00.246Z,24.12
2022-10-19T09:44:28.597Z,23.46
2022-10-19T09:46:59.168Z,23.22
2022-10-19T09:49:41.996Z,24.30
2022-10-19T09:52:36.269Z,25.83
2022-10-19T09:55:05.800Z,24.94
2022-10-19T09:57:42.525Z,25.87
2022-10-19T10:00:18.043Z,27.55
2022-10-19T10:02:50.381Z,27.73
2022-10-19T10:05:19.377Z,29.74
2022-10-19T10:07:47.410Z,26.43
2022-10-19T10:10:21.251Z,25.25
2022-10-19T10:12:50.842Z,24.95
2022-10-19T10:15:20.779Z,24.07
2022-10-19T10:17:49.595Z,22.67
2022-10-19T10:20:24.324Z,24.28
2022-10-19T10:22:53.158Z,22.36
2022-10-19T10:25:21.490Z,21.80
2022-10-19T10:27:56.891Z,21.68
2022-10-19T10:30:25.176Z,21.50
2022-10-19T10:32:54.531Z,22.33
2022-10-19T10:35:25.381Z,23.05
2022-10-19T10:37:53.714Z,25.50
2022-10-19T10:40:24.299Z,26.09
2022-10-19T10:42:53.559Z,28.91
2022-10-19T10:45:25.080Z,27.71
2022-10-19T10:47:54.267Z,25.13
2022-10-19T10:50:24.459Z,24.51
2022-10-19T10:52:59.879Z,25.37
2022-10-19T10:55:28.206Z,25.37
2022-10-19T10:58:03.351Z,24.10
2022-10-19T11:00:34.384Z,23.98
2022-10-19T11:03:07.730Z,23.39
2022-10-19T11:05:39.248Z,24.40
2022-10-19T11:08:13.431Z,25.52
2022-10-19T11:10:44.374Z,25.33
2022-10-19T11:13:16.077Z,26.77
2022-10-19T11:15:52.339Z,26.72
2022-10-19T11:18:22.282Z,26.32
2022-10-19T11:20:55.253Z,27.08
2022-10-19T11:23:28.321Z,27.78
2022-10-19T11:26:04.215Z,29.49
2022-10-19T11:28:43.658Z,26.34
2022-10-19T11:31:16.735Z,24.75
2022-10-19T11:33:48.791Z,25.21
2022-10-19T11:36:25.820Z,24.57
2022-10-19T11:38:59.604Z,24.19
2022-10-19T11:41:33.387Z,24.97
2022-10-19T11:44:15.034Z,25.62
2022-10-19T11:46:48.717Z,27.42
2022-10-19T11:49:22.191Z,25.56
2022-10-19T11:51:57.339Z,24.26
2022-10-19T11:54:32.612Z,24.90
2022-10-19T11:57:09.338Z,25.28
2022-10-19T11:59:47.629Z,23.54
2022-10-19T12:02:28.741Z,23.35
2022-10-19T12:04:59.067Z,24.24
2022-10-19T12:07:37.771Z,24.67
2022-10-19T12:10:12.481Z,23.64
2022-10-19T12:12:42.828Z,22.66
2022-10-19T12:15:24.795Z,23.90
2022-10-19T12:17:56.813Z,23.58
2022-10-19T12:20:29.080Z,23.30
2022-10-19T12:22:58.422Z,23.81
2022-10-19T12:25:27.352Z,22.91
2022-10-19T12:27:55.222Z,23.42
2022-10-19T12:30:23.914Z,23.53
2022-10-19T12:33:04.397Z,24.49
2022-10-19T12:35:49.051Z,25.05
2022-10-19T12:38:20.839Z,23.94
2022-10-19T12:40:52.626Z,23.49
2022-10-19T12:43:21.850Z,22.94
2022-10-19T12:45:52.978Z,23.83
2022-10-19T12:48:24.471Z,24.06
2022-10-19T12:51:25.717Z,23.69
2022-10-19T12:54:07.827Z,25.72
2022-10-19T12:56:47.597Z,26.29
2022-10-19T12:59:23.476Z,26.73
2022-10-19T13:01:52.172Z,23.68
2022-10-19T13:04:23.403Z,23.55
2022-10-19T13:06:52.238Z,22.28
2022-10-19T13:09:24.606Z,22.94
2022-10-19T13:12:16.090Z,23.51
2022-10-19T13:14:48.813Z,23.97
2022-10-19T13:17:40.703Z,25.20
2022-10-19T13:20:28.481Z,24.17
2022-10-19T13:23:11.399Z,23.40
2022-10-19T13:25:40.792Z,23.65
2022-10-19T13:28:36.970Z,23.25
2022-10-19T13:31:09.314Z,24.27
2022-10-19T13:33:50.129Z,24.65
2022-10-19T13:36:18.832Z,24.12
2022-10-19T13:38:48.354Z,21.56
2022-10-19T13:41:19.195Z,21.41
2022-10-19T13:43:52.322Z,20.45
2022-10-19T13:46:22.511Z,20.04
2022-10-19T13:49:03.829Z,19.73
2022-10-19T13:51:35.262Z,19.64
2022-10-19T13:54:10.215Z,20.21
2022-10-19T13:56:49.072Z,20.75
2022-10-19T13:59:33.414Z,20.73
2022-10-19T14:02:18.464Z,20.18
2022-10-19T14:04:52.186Z,20.00
2022-10-19T14:07:22.281Z,19.12
2022-10-19T14:10:01.198Z,18.96
2022-10-19T14:12:31.297Z,19.06
2022-10-19T14:15:00.342Z,19.34
2022-10-19T14:17:33.883Z,18.87
2022-10-19T14:20:02.617Z,17.55
2022-10-19T14:22:33.365Z,17.42
2022-10-19T14:25:02.110Z,16.96
2022-10-19T14:27:32.003Z,16.52
2022-10-19T14:30:00.145Z,16.72
2022-10-19T14:32:29.178Z,16.86
2022-10-19T14:35:00.174Z,16.59
2022-10-19T14:37:28.382Z,16.48
2022-10-19T14:40:00.934Z,16.20
2022-10-19T14:42:41.218Z,15.79
2022-10-19T14:45:14.775Z,15.65
2022-10-19T14:47:52.926Z,15.80
2022-10-19T14:50:22.394Z,15.98
2022-10-19T14:52:52.122Z,15.65
2022-10-19T14:55:21.983Z,15.49
2022-10-19T14:57:53.063Z,15.34
2022-10-19T15:00:22.160Z,15.20
2022-10-19T15:02:54.127Z,14.98
2022-10-19T15:05:24.658Z,14.88
2022-10-19T15:07:52.845Z,14.91
2022-10-19T15:10:22.257Z,14.64
2022-10-19T15:12:52.298Z,14.63
2022-10-19T15:15:23.307Z,14.73
2022-10-19T15:17:52.666Z,14.44
2022-10-19T15:20:25.483Z,14.28
2022-10-19T15:22:53.670Z,14.28
2022-10-19T15:25:29.296Z,14.10
2022-10-19T15:27:58.869Z,14.22
2022-10-19T15:30:28.395Z,14.00
2022-10-19T15:33:08.455Z,13.93
2022-10-19T15:35:37.142Z,13.83
2022-10-19T15:38:06.414Z,13.61
2022-10-19T15:40:35.634Z,13.51
2022-10-19T15:43:18.600Z,13.29
2022-10-19T15:45:48.203Z,13.24
2022-10-19T15:48:18.411Z,13.22
2022-10-19T15:50:48.216Z,13.00
2022-10-19T15:53:16.246Z,12.90
2022-10-19T15:55:44.140Z,12.73
2022-10-19T15:58:13.275Z,12.69
2022-10-19T16:00:41.980Z,12.68
2022-10-19T16:03:11.453Z,12.51
2022-10-19T16:05:39.470Z,12.52
2022-10-19T16:08:11.648Z,12.49
2022-10-19T16:10:40.661Z,12.38
2022-10-19T16:13:08.962Z,12.25
2022-10-19T16:15:37.415Z,12.27
2022-10-19T16:18:05.415Z,12.14
2022-10-19T16:20:34.891Z,12.04
2022-10-19T16:23:03.183Z,11.98
2022-10-19T16:25:31.382Z,11.86
2022-10-19T16:27:59.582Z,11.89
2022-10-19T16:30:27.678Z,11.70
2022-10-19T16:32:55.621Z,11.72
2022-10-19T16:35:23.874Z,11.60
2022-10-19T16:37:53.267Z,11.60
2022-10-19T16:40:21.240Z,11.54
2022-10-19T16:42:49.336Z,11.38
2022-10-19T16:45:17.211Z,11.30
2022-10-19T16:47:45.459Z,11.24
2022-10-19T16:50:13.410Z,11.22
2022-10-19T16:52:41.385Z,11.18
2022-10-19T16:55:10.920Z,11.07
2022-10-19T16:57:38.875Z,11.02
2022-10-19T17:00:09.402Z,11.02
2022-10-19T17:02:43.193Z,10.98
2022-10-19T17:05:14.044Z,10.88
2022-10-19T17:07:42.239Z,10.85
2022-10-19T17:10:11.756Z,10.79
2022-10-19T17:12:40.532Z,10.77
2022-10-19T17:15:40.758Z,10.67
2022-10-19T17:17:58.088Z,10.72
2022-10-19T17:20:26.162Z,10.63
2022-10-19T17:22:54.121Z,10.67
2022-10-19T17:25:23.680Z,10.57
2022-10-19T17:27:51.736Z,10.54
2022-10-19T17:30:20.557Z,10.57
2022-10-19T17:32:49.829Z,10.62
2022-10-19T17:35:17.754Z,10.48
2022-10-19T17:37:45.831Z,10.43
2022-10-19T17:40:14.272Z,10.42
2022-10-19T17:42:43.743Z,10.45
2022-10-19T17:45:12.053Z,10.33
2022-10-19T17:47:40.081Z,10.28
2022-10-19T17:50:08.396Z,10.22
2022-10-19T17:52:36.449Z,10.18
2022-10-19T17:55:12.054Z,10.15
2022-10-19T17:57:40.683Z,10.20
2022-10-19T18:00:10.753Z,10.13
2022-10-19T18:02:39.913Z,10.16
2022-10-19T18:05:08.655Z,10.09
2022-10-19T18:07:36.925Z,10.06
2022-10-19T18:10:05.821Z,10.03
2022-10-19T18:12:33.849Z,10.04
2022-10-19T18:15:01.969Z,9.89
2022-10-19T18:17:31.389Z,9.98
2022-10-19T18:19:59.184Z,9.89
2022-10-19T18:22:27.400Z,9.91
2022-10-19T18:24:55.556Z,9.88
2022-10-19T18:27:23.782Z,9.81
2022-10-19T18:29:51.800Z,9.84
2022-10-19T18:32:19.867Z,9.85
2022-10-19T18:34:49.333Z,9.80
2022-10-19T18:37:17.118Z,9.77
2022-10-19T18:39:45.013Z,9.77
2022-10-19T18:42:13.164Z,9.72
2022-10-19T18:44:40.986Z,9.61
2022-10-19T18:47:09.015Z,9.54
2022-10-19T18:49:37.000Z,9.52
2022-10-19T18:52:06.186Z,9.48
2022-10-19T18:54:33.963Z,9.47
2022-10-19T18:57:01.794Z,9.44
2022-10-19T18:59:29.700Z,9.38
2022-10-19T19:01:57.559Z,9.38
2022-10-19T19:04:25.457Z,9.40
2022-10-19T19:06:53.674Z,9.33
2022-10-19T19:09:26.168Z,9.39
2022-10-19T19:11:57.781Z,9.35
2022-10-19T19:14:26.420Z,9.27
2022-10-19T19:16:55.468Z,9.19
2022-10-19T19:19:24.363Z,9.09
2022-10-19T19:21:52.584Z,9.05
2022-10-19T19:24:21.956Z,9.00
2022-10-19T19:26:55.022Z,8.90
2022-10-19T19:29:23.187Z,8.85
2022-10-19T19:31:51.149Z,8.83
2022-10-19T19:34:19.159Z,8.86
2022-10-19T19:36:48.591Z,8.86
2022-10-19T19:39:18.565Z,8.80
2022-10-19T19:41:48.216Z,8.76
2022-10-19T19:44:19.155Z,8.68
2022-10-19T19:46:47.292Z,8.63
2022-10-19T19:49:16.395Z,8.73
2022-10-19T19:51:44.317Z,8.65
2022-10-19T19:54:13.033Z,8.60
2022-10-19T19:56:43.942Z,8.58
2022-10-19T19:59:12.506Z,8.58
2022-10-19T20:01:42.102Z,8.52
2022-10-19T20:04:10.566Z,8.43
2022-10-19T20:06:39.098Z,8.42
2022-10-19T20:09:07.820Z,8.33
2022-10-19T20:11:38.444Z,8.30
2022-10-19T20:14:09.285Z,8.32
2022-10-19T20:16:37.297Z,8.33
2022-10-19T20:19:08.107Z,8.20
2022-10-19T20:21:36.238Z,8.25
2022-10-19T20:24:04.578Z,8.17
2022-10-19T20:26:32.919Z,8.12
2022-10-19T20:29:02.002Z,8.10
2022-10-19T20:31:31.235Z,8.05
2022-10-19T20:33:59.146Z,8.09
2022-10-19T20:36:28.555Z,8.04
2022-10-19T20:38:57.390Z,7.94
2022-10-19T20:41:26.893Z,7.96
2022-10-19T20:43:57.277Z,7.89
2022-10-19T20:46:26.231Z,7.98
2022-10-19T20:48:54.668Z,7.91
2022-10-19T20:51:27.467Z,7.84
2022-10-19T20:54:01.236Z,7.84
2022-10-19T20:56:29.910Z,7.85
2022-10-19T20:58:58.435Z,7.82
2022-10-19T21:01:27.037Z,7.76
2022-10-19T21:03:56.373Z,7.66
2022-10-19T21:06:25.586Z,7.69
2022-10-19T21:08:53.738Z,7.67
2022-10-19T21:11:23.794Z,7.58
2022-10-19T21:13:53.907Z,7.53
2022-10-19T21:16:23.317Z,7.56
2022-10-19T21:18:52.014Z,7.48
2022-10-19T21:21:21.417Z,7.49
2022-10-19T21:23:51.420Z,7.49
2022-10-19T21:26:19.416Z,7.40
2022-10-19T21:28:49.558Z,7.32
2022-10-19T21:31:19.348Z,7.34
2022-10-19T21:33:47.290Z,7.29
2022-10-19T21:36:16.076Z,7.20
2022-10-19T21:38:43.967Z,7.23
2022-10-19T21:41:12.658Z,7.20
2022-10-19T21:43:40.688Z,7.22
2022-10-19T21:46:11.674Z,7.24
2022-10-19T21:48:39.920Z,7.23
2022-10-19T21:51:23.481Z,7.27
2022-10-19T21:53:51.935Z,7.25
2022-10-19T21:56:19.949Z,7.14
2022-10-19T21:58:47.965Z,7.15
2022-10-19T22:01:17.772Z,7.18
2022-10-19T22:03:45.818Z,7.15
2022-10-19T22:06:14.043Z,7.18
2022-10-19T22:08:45.277Z,7.15
2022-10-19T22:11:14.202Z,7.27
2022-10-19T22:13:42.559Z,7.16
2022-10-19T22:16:11.454Z,7.16
2022-10-19T22:18:40.905Z,7.07
2022-10-19T22:21:09.703Z,7.05
2022-10-19T22:23:38.433Z,7.02
2022-10-19T22:26:12.487Z,7.09
2022-10-19T22:28:40.448Z,7.06
2022-10-19T22:31:08.397Z,6.99
2022-10-19T22:33:36.727Z,6.99
2022-10-19T22:36:06.639Z,7.02
2022-10-19T22:38:34.938Z,7.00
2022-10-19T22:41:03.184Z,7.01
2022-10-19T22:43:31.119Z,7.01
2022-10-19T22:45:59.375Z,7.03
2022-10-19T22:48:30.521Z,6.99
2022-10-19T22:50:58.719Z,6.95
2022-10-19T22:53:28.260Z,6.94
2022-10-19T22:55:56.309Z,6.98
2022-10-19T22:58:24.118Z,6.87
2022-10-19T23:01:00.239Z,6.75
2022-10-19T23:03:28.367Z,6.73
2022-10-19T23:05:56.309Z,6.71
2022-10-19T23:08:24.185Z,6.72
2022-10-19T23:10:53.469Z,6.66
2022-10-19T23:13:21.294Z,6.59
2022-10-19T23:15:50.445Z,6.56
2022-10-19T23:18:18.347Z,6.51
2022-10-19T23:20:53.291Z,6.54
2022-10-19T23:23:21.403Z,6.50
2022-10-19T23:25:59.341Z,6.53
2022-10-19T23:28:27.673Z,6.50
2022-10-19T23:30:57.162Z,6.60
2022-10-19T23:33:25.444Z,6.61
2022-10-19T23:35:53.335Z,6.61
2022-10-19T23:38:21.139Z,6.69
2022-10-19T23:40:49.199Z,6.71
2022-10-19T23:43:18.444Z,6.65
2022-10-19T23:45:46.497Z,6.70
2022-10-19T23:48:14.303Z,6.68
2022-10-19T23:50:42.112Z,6.78
2022-10-19T23:53:10.078Z,6.73
2022-10-19T23:55:37.966Z,6.70
2022-10-19T23:58:05.788Z,6.75
